sensor_id;sensor_type;location;lat;lon;timestamp;P1;durP1;ratioP1;P2;durP2;ratioP2
12312;SDS011;6220;53.580;9.758;2022-09-09T00:00:06;29.30;;;24.47;;
12312;SDS011;6220;53.580;9.758;2022-09-09T00:02:37;25.10;;;22.60;;
12312;SDS011;6220;53.580;9.758;2022-09-09T00:05:14;27.37;;;24.47;;
12312;SDS011;6220;53.580;9.758;2022-09-09T00:07:59;28.60;;;24.93;;
12312;SDS011;6220;53.580;9.758;2022-09-09T00:10:34;35.93;;;26.10;;
12312;SDS011;6220;53.580;9.758;2022-09-09T00:21:33;28.50;;;22.80;;
12312;SDS011;6220;53.580;9.758;2022-09-09T00:24:22;32.43;;;23.93;;
12312;SDS011;6220;53.580;9.758;2022-09-09T00:26:53;46.87;;;23.60;;
12312;SDS011;6220;53.580;9.758;2022-09-09T00:32:14;27.40;;;23.73;;
12312;SDS011;6220;53.580;9.758;2022-09-09T00:34:47;30.50;;;24.40;;
12312;SDS011;6220;53.580;9.758;2022-09-09T00:37:20;25.53;;;22.87;;
12312;SDS011;6220;53.580;9.758;2022-09-09T00:39:46;25.87;;;23.17;;
12312;SDS011;6220;53.580;9.758;2022-09-09T00:42:26;26.23;;;23.43;;
12312;SDS011;6220;53.580;9.758;2022-09-09T00:45:10;25.83;;;23.13;;
12312;SDS011;6220;53.580;9.758;2022-09-09T00:47:40;27.50;;;23.90;;
12312;SDS011;6220;53.580;9.758;2022-09-09T00:53:13;26.77;;;23.47;;
12312;SDS011;6220;53.580;9.758;2022-09-09T00:58:30;24.40;;;21.90;;
12312;SDS011;6220;53.580;9.758;2022-09-09T01:01:05;24.90;;;22.17;;
12312;SDS011;6220;53.580;9.758;2022-09-09T01:03:35;24.30;;;21.87;;
12312;SDS011;6220;53.580;9.758;2022-09-09T01:11:05;24.27;;;21.83;;
12312;SDS011;6220;53.580;9.758;2022-09-09T01:13:36;23.67;;;21.13;;
12312;SDS011;6220;53.580;9.758;2022-09-09T01:16:03;23.30;;;20.90;;
12312;SDS011;6220;53.580;9.758;2022-09-09T01:18:37;23.73;;;21.20;;
12312;SDS011;6220;53.580;9.758;2022-09-09T01:26:37;22.60;;;20.30;;
12312;SDS011;6220;53.580;9.758;2022-09-09T01:29:04;23.33;;;20.93;;
12312;SDS011;6220;53.580;9.758;2022-09-09T01:31:37;22.27;;;20.00;;
12312;SDS011;6220;53.580;9.758;2022-09-09T01:34:11;23.27;;;20.43;;
12312;SDS011;6220;53.580;9.758;2022-09-09T01:36:45;22.87;;;20.40;;
12312;SDS011;6220;53.580;9.758;2022-09-09T01:39:11;21.77;;;19.47;;
12312;SDS011;6220;53.580;9.758;2022-09-09T01:41:37;22.23;;;19.83;;
12312;SDS011;6220;53.580;9.758;2022-09-09T01:44:03;22.00;;;19.33;;
12312;SDS011;6220;53.580;9.758;2022-09-09T01:46:28;21.40;;;19.20;;
12312;SDS011;6220;53.580;9.758;2022-09-09T01:48:55;21.93;;;19.63;;
12312;SDS011;6220;53.580;9.758;2022-09-09T01:51:20;21.63;;;19.33;;
12312;SDS011;6220;53.580;9.758;2022-09-09T01:53:46;20.03;;;17.93;;
12312;SDS011;6220;53.580;9.758;2022-09-09T01:56:19;20.13;;;18.03;;
12312;SDS011;6220;53.580;9.758;2022-09-09T02:04:48;19.37;;;17.23;;
12312;SDS011;6220;53.580;9.758;2022-09-09T02:10:11;21.03;;;16.50;;
12312;SDS011;6220;53.580;9.758;2022-09-09T02:13:04;18.90;;;17.00;;
12312;SDS011;6220;53.580;9.758;2022-09-09T02:18:19;21.90;;;17.20;;
12312;SDS011;6220;53.580;9.758;2022-09-09T02:20:53;18.20;;;16.27;;
12312;SDS011;6220;53.580;9.758;2022-09-09T02:23:19;17.80;;;16.03;;
12312;SDS011;6220;53.580;9.758;2022-09-09T02:25:44;20.47;;;17.30;;
12312;SDS011;6220;53.580;9.758;2022-09-09T02:28:11;18.90;;;16.93;;
12312;SDS011;6220;53.580;9.758;2022-09-09T02:30:38;18.93;;;16.93;;
12312;SDS011;6220;53.580;9.758;2022-09-09T02:33:04;18.73;;;16.73;;
12312;SDS011;6220;53.580;9.758;2022-09-09T02:35:32;18.17;;;16.37;;
12312;SDS011;6220;53.580;9.758;2022-09-09T02:38:02;18.63;;;16.63;;
12312;SDS011;6220;53.580;9.758;2022-09-09T02:40:29;18.57;;;16.67;;
12312;SDS011;6220;53.580;9.758;2022-09-09T02:42:55;17.50;;;15.70;;
12312;SDS011;6220;53.580;9.758;2022-09-09T02:45:22;19.50;;;16.57;;
12312;SDS011;6220;53.580;9.758;2022-09-09T02:47:56;17.57;;;15.67;;
12312;SDS011;6220;53.580;9.758;2022-09-09T02:55:38;18.70;;;16.27;;
12312;SDS011;6220;53.580;9.758;2022-09-09T02:58:14;21.30;;;17.03;;
12312;SDS011;6220;53.580;9.758;2022-09-09T03:00:45;19.67;;;16.87;;
12312;SDS011;6220;53.580;9.758;2022-09-09T03:03:11;18.87;;;16.97;;
12312;SDS011;6220;53.580;9.758;2022-09-09T03:05:37;20.67;;;17.00;;
12312;SDS011;6220;53.580;9.758;2022-09-09T03:08:03;20.83;;;16.13;;
12312;SDS011;6220;53.580;9.758;2022-09-09T03:10:29;21.00;;;17.17;;
12312;SDS011;6220;53.580;9.758;2022-09-09T03:12:54;18.00;;;16.10;;
12312;SDS011;6220;53.580;9.758;2022-09-09T03:15:20;19.50;;;17.50;;
12312;SDS011;6220;53.580;9.758;2022-09-09T03:17:46;19.47;;;17.53;;
12312;SDS011;6220;53.580;9.758;2022-09-09T03:20:12;17.83;;;16.03;;
12312;SDS011;6220;53.580;9.758;2022-09-09T03:22:37;17.53;;;15.50;;
12312;SDS011;6220;53.580;9.758;2022-09-09T03:25:03;16.93;;;15.13;;
12312;SDS011;6220;53.580;9.758;2022-09-09T03:27:28;18.17;;;16.30;;
12312;SDS011;6220;53.580;9.758;2022-09-09T03:29:54;18.73;;;16.67;;
12312;SDS011;6220;53.580;9.758;2022-09-09T03:32:20;17.40;;;15.60;;
12312;SDS011;6220;53.580;9.758;2022-09-09T03:34:47;21.23;;;16.53;;
12312;SDS011;6220;53.580;9.758;2022-09-09T03:37:14;20.67;;;16.13;;
12312;SDS011;6220;53.580;9.758;2022-09-09T03:39:39;16.97;;;15.27;;
12312;SDS011;6220;53.580;9.758;2022-09-09T03:42:05;16.53;;;14.93;;
12312;SDS011;6220;53.580;9.758;2022-09-09T03:44:30;17.50;;;14.60;;
12312;SDS011;6220;53.580;9.758;2022-09-09T03:46:56;16.83;;;15.10;;
12312;SDS011;6220;53.580;9.758;2022-09-09T03:49:21;16.87;;;15.07;;
12312;SDS011;6220;53.580;9.758;2022-09-09T03:51:47;18.13;;;15.47;;
12312;SDS011;6220;53.580;9.758;2022-09-09T03:54:13;15.67;;;14.07;;
12312;SDS011;6220;53.580;9.758;2022-09-09T03:56:38;16.53;;;14.90;;
12312;SDS011;6220;53.580;9.758;2022-09-09T03:59:06;17.97;;;14.40;;
12312;SDS011;6220;53.580;9.758;2022-09-09T04:01:31;18.57;;;14.83;;
12312;SDS011;6220;53.580;9.758;2022-09-09T04:03:57;16.40;;;14.10;;
12312;SDS011;6220;53.580;9.758;2022-09-09T04:06:23;15.17;;;13.50;;
12312;SDS011;6220;53.580;9.758;2022-09-09T04:08:48;17.17;;;14.20;;
12312;SDS011;6220;53.580;9.758;2022-09-09T04:11:14;15.87;;;14.17;;
12312;SDS011;6220;53.580;9.758;2022-09-09T04:13:41;15.83;;;14.17;;
12312;SDS011;6220;53.580;9.758;2022-09-09T04:16:07;16.60;;;14.20;;
12312;SDS011;6220;53.580;9.758;2022-09-09T04:18:35;16.47;;;14.77;;
12312;SDS011;6220;53.580;9.758;2022-09-09T04:21:00;16.00;;;14.30;;
12312;SDS011;6220;53.580;9.758;2022-09-09T04:23:26;16.43;;;14.73;;
12312;SDS011;6220;53.580;9.758;2022-09-09T04:25:54;14.87;;;13.37;;
12312;SDS011;6220;53.580;9.758;2022-09-09T04:28:21;15.70;;;14.00;;
12312;SDS011;6220;53.580;9.758;2022-09-09T04:30:48;16.33;;;14.37;;
12312;SDS011;6220;53.580;9.758;2022-09-09T04:33:13;19.73;;;14.80;;
12312;SDS011;6220;53.580;9.758;2022-09-09T04:35:39;17.63;;;13.07;;
12312;SDS011;6220;53.580;9.758;2022-09-09T04:38:09;15.23;;;12.93;;
12312;SDS011;6220;53.580;9.758;2022-09-09T04:40:34;17.37;;;13.67;;
12312;SDS011;6220;53.580;9.758;2022-09-09T04:43:00;14.60;;;12.50;;
12312;SDS011;6220;53.580;9.758;2022-09-09T04:45:26;14.57;;;13.07;;
12312;SDS011;6220;53.580;9.758;2022-09-09T04:47:52;13.80;;;12.40;;
12312;SDS011;6220;53.580;9.758;2022-09-09T04:50:18;14.70;;;12.40;;
12312;SDS011;6220;53.580;9.758;2022-09-09T04:52:43;14.70;;;11.67;;
12312;SDS011;6220;53.580;9.758;2022-09-09T04:55:09;12.93;;;11.20;;
12312;SDS011;6220;53.580;9.758;2022-09-09T04:57:34;14.17;;;11.87;;
12312;SDS011;6220;53.580;9.758;2022-09-09T05:00:00;12.63;;;11.10;;
12312;SDS011;6220;53.580;9.758;2022-09-09T05:02:25;11.87;;;10.33;;
12312;SDS011;6220;53.580;9.758;2022-09-09T05:04:51;11.90;;;10.27;;
12312;SDS011;6220;53.580;9.758;2022-09-09T05:07:16;11.97;;;10.70;;
12312;SDS011;6220;53.580;9.758;2022-09-09T05:09:42;10.20;;;9.30;;
12312;SDS011;6220;53.580;9.758;2022-09-09T05:12:08;10.67;;;9.57;;
12312;SDS011;6220;53.580;9.758;2022-09-09T05:14:33;10.77;;;9.67;;
12312;SDS011;6220;53.580;9.758;2022-09-09T05:17:00;10.33;;;9.13;;
12312;SDS011;6220;53.580;9.758;2022-09-09T05:19:25;10.30;;;8.93;;
12312;SDS011;6220;53.580;9.758;2022-09-09T05:21:50;9.73;;;8.63;;
12312;SDS011;6220;53.580;9.758;2022-09-09T05:24:16;11.10;;;8.37;;
12312;SDS011;6220;53.580;9.758;2022-09-09T05:26:42;9.50;;;8.10;;
12312;SDS011;6220;53.580;9.758;2022-09-09T05:29:08;10.83;;;8.27;;
12312;SDS011;6220;53.580;9.758;2022-09-09T05:31:33;9.60;;;7.70;;
12312;SDS011;6220;53.580;9.758;2022-09-09T05:33:59;11.27;;;7.93;;
12312;SDS011;6220;53.580;9.758;2022-09-09T05:36:24;8.60;;;7.70;;
12312;SDS011;6220;53.580;9.758;2022-09-09T05:38:50;10.63;;;7.13;;
12312;SDS011;6220;53.580;9.758;2022-09-09T05:41:16;7.20;;;6.50;;
12312;SDS011;6220;53.580;9.758;2022-09-09T05:43:42;8.30;;;7.03;;
12312;SDS011;6220;53.580;9.758;2022-09-09T05:46:13;8.10;;;7.27;;
12312;SDS011;6220;53.580;9.758;2022-09-09T05:48:43;9.87;;;7.43;;
12312;SDS011;6220;53.580;9.758;2022-09-09T05:51:12;8.70;;;6.70;;
12312;SDS011;6220;53.580;9.758;2022-09-09T05:53:42;7.80;;;6.80;;
12312;SDS011;6220;53.580;9.758;2022-09-09T05:58:37;7.77;;;6.40;;
12312;SDS011;6220;53.580;9.758;2022-09-09T06:01:04;9.47;;;5.90;;
12312;SDS011;6220;53.580;9.758;2022-09-09T06:03:30;7.30;;;6.60;;
12312;SDS011;6220;53.580;9.758;2022-09-09T06:06:03;6.83;;;5.83;;
12312;SDS011;6220;53.580;9.758;2022-09-09T06:08:36;6.50;;;5.90;;
12312;SDS011;6220;53.580;9.758;2022-09-09T06:11:07;7.40;;;6.40;;
12312;SDS011;6220;53.580;9.758;2022-09-09T06:13:34;6.77;;;6.17;;
12312;SDS011;6220;53.580;9.758;2022-09-09T06:16:00;9.00;;;6.13;;
12312;SDS011;6220;53.580;9.758;2022-09-09T06:18:26;7.37;;;6.20;;
12312;SDS011;6220;53.580;9.758;2022-09-09T06:20:58;7.53;;;6.63;;
12312;SDS011;6220;53.580;9.758;2022-09-09T06:23:28;11.30;;;5.77;;
12312;SDS011;6220;53.580;9.758;2022-09-09T06:26:01;6.10;;;5.40;;
12312;SDS011;6220;53.580;9.758;2022-09-09T06:28:27;7.93;;;5.73;;
12312;SDS011;6220;53.580;9.758;2022-09-09T06:31:03;8.33;;;5.57;;
12312;SDS011;6220;53.580;9.758;2022-09-09T06:33:30;12.83;;;6.40;;
12312;SDS011;6220;53.580;9.758;2022-09-09T06:35:57;10.83;;;5.93;;
12312;SDS011;6220;53.580;9.758;2022-09-09T06:38:23;8.90;;;5.80;;
12312;SDS011;6220;53.580;9.758;2022-09-09T06:40:52;9.90;;;5.33;;
12312;SDS011;6220;53.580;9.758;2022-09-09T06:43:22;5.87;;;5.20;;
12312;SDS011;6220;53.580;9.758;2022-09-09T06:45:54;6.43;;;5.03;;
12312;SDS011;6220;53.580;9.758;2022-09-09T06:48:21;7.53;;;5.17;;
12312;SDS011;6220;53.580;9.758;2022-09-09T06:50:46;6.23;;;4.90;;
12312;SDS011;6220;53.580;9.758;2022-09-09T06:53:12;9.47;;;5.00;;
12312;SDS011;6220;53.580;9.758;2022-09-09T06:55:38;7.10;;;5.03;;
12312;SDS011;6220;53.580;9.758;2022-09-09T06:58:08;7.40;;;5.37;;
12312;SDS011;6220;53.580;9.758;2022-09-09T07:00:33;5.70;;;5.20;;
12312;SDS011;6220;53.580;9.758;2022-09-09T07:02:59;8.27;;;5.23;;
12312;SDS011;6220;53.580;9.758;2022-09-09T07:05:24;6.33;;;5.03;;
12312;SDS011;6220;53.580;9.758;2022-09-09T07:07:50;8.10;;;4.90;;
12312;SDS011;6220;53.580;9.758;2022-09-09T07:10:16;5.60;;;5.00;;
12312;SDS011;6220;53.580;9.758;2022-09-09T07:12:42;8.33;;;5.10;;
12312;SDS011;6220;53.580;9.758;2022-09-09T07:15:08;5.03;;;4.63;;
12312;SDS011;6220;53.580;9.758;2022-09-09T07:17:34;7.43;;;5.40;;
12312;SDS011;6220;53.580;9.758;2022-09-09T07:20:00;7.30;;;4.83;;
12312;SDS011;6220;53.580;9.758;2022-09-09T07:22:27;7.20;;;5.20;;
12312;SDS011;6220;53.580;9.758;2022-09-09T07:24:52;6.93;;;4.83;;
12312;SDS011;6220;53.580;9.758;2022-09-09T07:27:18;7.03;;;5.00;;
12312;SDS011;6220;53.580;9.758;2022-09-09T07:29:43;5.83;;;5.23;;
12312;SDS011;6220;53.580;9.758;2022-09-09T07:32:10;7.07;;;4.80;;
12312;SDS011;6220;53.580;9.758;2022-09-09T07:34:36;9.70;;;4.97;;
12312;SDS011;6220;53.580;9.758;2022-09-09T07:37:01;9.17;;;4.23;;
12312;SDS011;6220;53.580;9.758;2022-09-09T07:39:26;6.57;;;4.87;;
12312;SDS011;6220;53.580;9.758;2022-09-09T07:41:52;7.20;;;4.90;;
12312;SDS011;6220;53.580;9.758;2022-09-09T07:44:20;7.73;;;4.73;;
12312;SDS011;6220;53.580;9.758;2022-09-09T07:46:47;6.13;;;4.93;;
12312;SDS011;6220;53.580;9.758;2022-09-09T07:49:12;6.00;;;4.40;;
12312;SDS011;6220;53.580;9.758;2022-09-09T07:51:39;5.43;;;4.37;;
12312;SDS011;6220;53.580;9.758;2022-09-09T07:54:08;6.47;;;4.23;;
12312;SDS011;6220;53.580;9.758;2022-09-09T07:56:36;7.63;;;4.50;;
12312;SDS011;6220;53.580;9.758;2022-09-09T07:59:02;7.10;;;4.63;;
12312;SDS011;6220;53.580;9.758;2022-09-09T08:01:48;6.40;;;4.33;;
12312;SDS011;6220;53.580;9.758;2022-09-09T08:04:19;7.87;;;5.27;;
12312;SDS011;6220;53.580;9.758;2022-09-09T08:06:46;6.60;;;4.77;;
12312;SDS011;6220;53.580;9.758;2022-09-09T08:09:13;8.83;;;4.40;;
12312;SDS011;6220;53.580;9.758;2022-09-09T08:11:40;4.83;;;4.23;;
12312;SDS011;6220;53.580;9.758;2022-09-09T08:14:07;6.03;;;4.30;;
12312;SDS011;6220;53.580;9.758;2022-09-09T08:16:33;7.50;;;4.37;;
12312;SDS011;6220;53.580;9.758;2022-09-09T08:19:01;5.63;;;4.70;;
12312;SDS011;6220;53.580;9.758;2022-09-09T08:21:29;7.97;;;4.30;;
12312;SDS011;6220;53.580;9.758;2022-09-09T08:23:57;7.37;;;4.70;;
12312;SDS011;6220;53.580;9.758;2022-09-09T08:26:26;7.53;;;4.50;;
12312;SDS011;6220;53.580;9.758;2022-09-09T08:28:54;7.97;;;4.00;;
12312;SDS011;6220;53.580;9.758;2022-09-09T08:33:54;5.47;;;4.40;;
12312;SDS011;6220;53.580;9.758;2022-09-09T08:36:21;5.37;;;4.40;;
12312;SDS011;6220;53.580;9.758;2022-09-09T08:38:48;6.27;;;4.73;;
12312;SDS011;6220;53.580;9.758;2022-09-09T08:52:31;5.87;;;4.10;;
12312;SDS011;6220;53.580;9.758;2022-09-09T08:55:03;4.10;;;3.70;;
12312;SDS011;6220;53.580;9.758;2022-09-09T08:57:37;6.10;;;4.30;;
12312;SDS011;6220;53.580;9.758;2022-09-09T09:00:03;5.97;;;3.70;;
12312;SDS011;6220;53.580;9.758;2022-09-09T09:02:36;7.47;;;3.77;;
12312;SDS011;6220;53.580;9.758;2022-09-09T09:10:51;5.67;;;4.10;;
12312;SDS011;6220;53.580;9.758;2022-09-09T09:13:20;5.43;;;4.03;;
12312;SDS011;6220;53.580;9.758;2022-09-09T09:15:52;5.33;;;3.50;;
12312;SDS011;6220;53.580;9.758;2022-09-09T09:18:20;4.57;;;2.80;;
12312;SDS011;6220;53.580;9.758;2022-09-09T09:20:48;5.97;;;2.97;;
12312;SDS011;6220;53.580;9.758;2022-09-09T09:23:24;6.00;;;3.37;;
12312;SDS011;6220;53.580;9.758;2022-09-09T09:25:52;4.03;;;3.13;;
12312;SDS011;6220;53.580;9.758;2022-09-09T09:28:23;6.17;;;3.07;;
12312;SDS011;6220;53.580;9.758;2022-09-09T09:33:27;5.70;;;2.70;;
12312;SDS011;6220;53.580;9.758;2022-09-09T09:35:58;6.50;;;2.93;;
12312;SDS011;6220;53.580;9.758;2022-09-09T09:38:25;5.40;;;2.63;;
12312;SDS011;6220;53.580;9.758;2022-09-09T09:40:53;4.63;;;2.40;;
12312;SDS011;6220;53.580;9.758;2022-09-09T09:43:35;4.23;;;2.47;;
12312;SDS011;6220;53.580;9.758;2022-09-09T09:46:05;3.67;;;2.00;;
12312;SDS011;6220;53.580;9.758;2022-09-09T09:48:30;3.57;;;2.10;;
12312;SDS011;6220;53.580;9.758;2022-09-09T09:51:08;5.47;;;1.70;;
12312;SDS011;6220;53.580;9.758;2022-09-09T09:53:38;4.13;;;1.70;;
12312;SDS011;6220;53.580;9.758;2022-09-09T09:58:37;3.50;;;1.50;;
12312;SDS011;6220;53.580;9.758;2022-09-09T10:01:26;3.30;;;1.90;;
12312;SDS011;6220;53.580;9.758;2022-09-09T10:03:56;2.37;;;1.30;;
12312;SDS011;6220;53.580;9.758;2022-09-09T10:06:33;8.90;;;2.40;;
12312;SDS011;6220;53.580;9.758;2022-09-09T10:08:59;6.97;;;1.73;;
12312;SDS011;6220;53.580;9.758;2022-09-09T10:11:30;1.70;;;1.30;;
12312;SDS011;6220;53.580;9.758;2022-09-09T10:14:19;3.17;;;1.43;;
12312;SDS011;6220;53.580;9.758;2022-09-09T10:28:10;2.57;;;1.30;;
12312;SDS011;6220;53.580;9.758;2022-09-09T10:33:56;4.17;;;1.20;;
12312;SDS011;6220;53.580;9.758;2022-09-09T10:36:25;2.27;;;1.17;;
12312;SDS011;6220;53.580;9.758;2022-09-09T10:41:31;2.10;;;1.23;;
12312;SDS011;6220;53.580;9.758;2022-09-09T10:44:14;4.10;;;1.33;;
12312;SDS011;6220;53.580;9.758;2022-09-09T10:47:20;1.37;;;0.90;;
12312;SDS011;6220;53.580;9.758;2022-09-09T10:55:19;1.40;;;1.23;;
12312;SDS011;6220;53.580;9.758;2022-09-09T10:57:46;3.17;;;1.40;;
12312;SDS011;6220;53.580;9.758;2022-09-09T11:00:21;2.63;;;1.30;;
12312;SDS011;6220;53.580;9.758;2022-09-09T11:02:49;2.53;;;1.23;;
12312;SDS011;6220;53.580;9.758;2022-09-09T11:05:19;4.13;;;1.17;;
12312;SDS011;6220;53.580;9.758;2022-09-09T11:07:48;2.37;;;1.37;;
12312;SDS011;6220;53.580;9.758;2022-09-09T11:10:21;4.83;;;1.50;;
12312;SDS011;6220;53.580;9.758;2022-09-09T11:12:50;2.33;;;1.00;;
12312;SDS011;6220;53.580;9.758;2022-09-09T11:15:20;2.50;;;1.13;;
12312;SDS011;6220;53.580;9.758;2022-09-09T11:17:52;3.57;;;1.30;;
12312;SDS011;6220;53.580;9.758;2022-09-09T11:20:20;1.57;;;0.93;;
12312;SDS011;6220;53.580;9.758;2022-09-09T11:22:49;3.37;;;1.37;;
12312;SDS011;6220;53.580;9.758;2022-09-09T11:25:23;4.40;;;1.60;;
12312;SDS011;6220;53.580;9.758;2022-09-09T11:31:14;2.97;;;1.30;;
12312;SDS011;6220;53.580;9.758;2022-09-09T11:34:05;2.93;;;1.40;;
12312;SDS011;6220;53.580;9.758;2022-09-09T11:39:44;3.93;;;1.50;;
12312;SDS011;6220;53.580;9.758;2022-09-09T11:44:38;3.63;;;1.20;;
12312;SDS011;6220;53.580;9.758;2022-09-09T11:47:03;3.13;;;1.37;;
12312;SDS011;6220;53.580;9.758;2022-09-09T11:52:10;3.30;;;1.47;;
12312;SDS011;6220;53.580;9.758;2022-09-09T11:54:46;3.07;;;1.50;;
12312;SDS011;6220;53.580;9.758;2022-09-09T11:57:46;6.07;;;1.60;;
12312;SDS011;6220;53.580;9.758;2022-09-09T12:00:04;3.90;;;1.60;;
12312;SDS011;6220;53.580;9.758;2022-09-09T12:02:30;3.43;;;1.47;;
12312;SDS011;6220;53.580;9.758;2022-09-09T12:05:09;3.23;;;1.50;;
12312;SDS011;6220;53.580;9.758;2022-09-09T12:10:32;3.63;;;1.40;;
12312;SDS011;6220;53.580;9.758;2022-09-09T12:15:54;3.00;;;1.37;;
12312;SDS011;6220;53.580;9.758;2022-09-09T12:18:34;4.87;;;1.60;;
12312;SDS011;6220;53.580;9.758;2022-09-09T12:23:38;7.60;;;1.97;;
12312;SDS011;6220;53.580;9.758;2022-09-09T12:26:21;4.83;;;1.50;;
12312;SDS011;6220;53.580;9.758;2022-09-09T12:29:03;3.27;;;1.40;;
12312;SDS011;6220;53.580;9.758;2022-09-09T12:31:41;2.53;;;1.20;;
12312;SDS011;6220;53.580;9.758;2022-09-09T12:34:15;3.00;;;1.60;;
12312;SDS011;6220;53.580;9.758;2022-09-09T12:36:44;2.57;;;1.60;;
12312;SDS011;6220;53.580;9.758;2022-09-09T12:39:17;4.67;;;1.50;;
12312;SDS011;6220;53.580;9.758;2022-09-09T12:41:50;4.53;;;1.70;;
12312;SDS011;6220;53.580;9.758;2022-09-09T12:44:22;3.63;;;1.30;;
12312;SDS011;6220;53.580;9.758;2022-09-09T12:46:48;3.57;;;1.60;;
12312;SDS011;6220;53.580;9.758;2022-09-09T12:52:14;4.67;;;1.40;;
12312;SDS011;6220;53.580;9.758;2022-09-09T12:54:45;5.80;;;1.57;;
12312;SDS011;6220;53.580;9.758;2022-09-09T12:57:12;5.40;;;1.63;;
12312;SDS011;6220;53.580;9.758;2022-09-09T12:59:38;6.17;;;1.63;;
12312;SDS011;6220;53.580;9.758;2022-09-09T13:02:21;2.67;;;1.37;;
12312;SDS011;6220;53.580;9.758;2022-09-09T13:04:47;5.50;;;1.73;;
12312;SDS011;6220;53.580;9.758;2022-09-09T13:07:15;3.87;;;1.80;;
12312;SDS011;6220;53.580;9.758;2022-09-09T13:09:41;5.93;;;1.60;;
12312;SDS011;6220;53.580;9.758;2022-09-09T13:12:09;3.73;;;2.00;;
12312;SDS011;6220;53.580;9.758;2022-09-09T13:14:42;4.73;;;1.70;;
12312;SDS011;6220;53.580;9.758;2022-09-09T13:17:15;4.53;;;1.70;;
12312;SDS011;6220;53.580;9.758;2022-09-09T13:19:43;3.13;;;1.60;;
12312;SDS011;6220;53.580;9.758;2022-09-09T13:22:11;5.83;;;1.70;;
12312;SDS011;6220;53.580;9.758;2022-09-09T13:24:38;4.47;;;1.90;;
12312;SDS011;6220;53.580;9.758;2022-09-09T13:27:04;5.57;;;1.67;;
12312;SDS011;6220;53.580;9.758;2022-09-09T13:29:51;2.20;;;1.27;;
12312;SDS011;6220;53.580;9.758;2022-09-09T13:32:19;6.10;;;1.97;;
12312;SDS011;6220;53.580;9.758;2022-09-09T13:34:52;4.40;;;3.00;;
12312;SDS011;6220;53.580;9.758;2022-09-09T13:37:45;2.77;;;1.40;;
12312;SDS011;6220;53.580;9.758;2022-09-09T13:40:17;2.50;;;1.00;;
12312;SDS011;6220;53.580;9.758;2022-09-09T13:42:44;2.10;;;1.10;;
12312;SDS011;6220;53.580;9.758;2022-09-09T13:45:16;2.97;;;1.20;;
12312;SDS011;6220;53.580;9.758;2022-09-09T13:47:46;2.00;;;0.97;;
12312;SDS011;6220;53.580;9.758;2022-09-09T13:50:19;1.50;;;1.10;;
12312;SDS011;6220;53.580;9.758;2022-09-09T13:52:46;1.33;;;1.10;;
12312;SDS011;6220;53.580;9.758;2022-09-09T13:55:19;2.20;;;1.40;;
12312;SDS011;6220;53.580;9.758;2022-09-09T13:57:50;4.43;;;1.60;;
12312;SDS011;6220;53.580;9.758;2022-09-09T14:00:20;3.73;;;1.70;;
12312;SDS011;6220;53.580;9.758;2022-09-09T14:02:46;11.63;;;1.90;;
12312;SDS011;6220;53.580;9.758;2022-09-09T14:05:12;3.73;;;1.80;;
12312;SDS011;6220;53.580;9.758;2022-09-09T14:07:38;4.00;;;2.47;;
12312;SDS011;6220;53.580;9.758;2022-09-09T14:10:05;3.40;;;1.90;;
12312;SDS011;6220;53.580;9.758;2022-09-09T14:12:31;4.00;;;2.10;;
12312;SDS011;6220;53.580;9.758;2022-09-09T14:14:57;2.70;;;1.60;;
12312;SDS011;6220;53.580;9.758;2022-09-09T14:17:22;2.50;;;1.70;;
12312;SDS011;6220;53.580;9.758;2022-09-09T14:19:47;3.30;;;1.50;;
12312;SDS011;6220;53.580;9.758;2022-09-09T14:22:13;2.43;;;1.53;;
12312;SDS011;6220;53.580;9.758;2022-09-09T14:24:39;3.07;;;1.47;;
12312;SDS011;6220;53.580;9.758;2022-09-09T14:27:04;2.97;;;1.60;;
12312;SDS011;6220;53.580;9.758;2022-09-09T14:29:29;3.70;;;1.33;;
12312;SDS011;6220;53.580;9.758;2022-09-09T14:31:55;3.07;;;1.40;;
12312;SDS011;6220;53.580;9.758;2022-09-09T14:34:20;3.00;;;1.30;;
12312;SDS011;6220;53.580;9.758;2022-09-09T14:36:45;2.23;;;1.50;;
12312;SDS011;6220;53.580;9.758;2022-09-09T14:39:11;6.37;;;2.80;;
12312;SDS011;6220;53.580;9.758;2022-09-09T14:41:37;3.73;;;1.80;;
12312;SDS011;6220;53.580;9.758;2022-09-09T14:44:02;4.00;;;1.70;;
12312;SDS011;6220;53.580;9.758;2022-09-09T14:46:28;5.47;;;1.77;;
12312;SDS011;6220;53.580;9.758;2022-09-09T14:48:53;2.20;;;1.40;;
12312;SDS011;6220;53.580;9.758;2022-09-09T14:51:19;4.03;;;2.00;;
12312;SDS011;6220;53.580;9.758;2022-09-09T14:53:53;2.73;;;1.70;;
12312;SDS011;6220;53.580;9.758;2022-09-09T14:56:20;4.17;;;1.63;;
12312;SDS011;6220;53.580;9.758;2022-09-09T14:58:48;3.83;;;1.63;;
12312;SDS011;6220;53.580;9.758;2022-09-09T15:01:14;3.87;;;1.87;;
12312;SDS011;6220;53.580;9.758;2022-09-09T15:03:41;2.37;;;1.60;;
12312;SDS011;6220;53.580;9.758;2022-09-09T15:06:11;3.73;;;2.10;;
12312;SDS011;6220;53.580;9.758;2022-09-09T15:08:38;3.70;;;1.60;;
12312;SDS011;6220;53.580;9.758;2022-09-09T15:11:05;2.57;;;1.60;;
12312;SDS011;6220;53.580;9.758;2022-09-09T15:13:34;3.37;;;1.37;;
12312;SDS011;6220;53.580;9.758;2022-09-09T15:16:04;3.17;;;1.40;;
12312;SDS011;6220;53.580;9.758;2022-09-09T15:18:33;3.57;;;1.57;;
12312;SDS011;6220;53.580;9.758;2022-09-09T15:21:00;7.80;;;1.60;;
12312;SDS011;6220;53.580;9.758;2022-09-09T15:23:28;2.70;;;1.37;;
12312;SDS011;6220;53.580;9.758;2022-09-09T15:25:54;3.30;;;1.63;;
12312;SDS011;6220;53.580;9.758;2022-09-09T15:28:20;2.00;;;1.20;;
12312;SDS011;6220;53.580;9.758;2022-09-09T15:30:49;2.80;;;1.23;;
12312;SDS011;6220;53.580;9.758;2022-09-09T15:33:16;2.73;;;1.50;;
12312;SDS011;6220;53.580;9.758;2022-09-09T15:35:42;2.73;;;1.43;;
12312;SDS011;6220;53.580;9.758;2022-09-09T15:38:07;3.00;;;1.60;;
12312;SDS011;6220;53.580;9.758;2022-09-09T15:40:32;2.80;;;1.57;;
12312;SDS011;6220;53.580;9.758;2022-09-09T15:42:58;1.93;;;1.57;;
12312;SDS011;6220;53.580;9.758;2022-09-09T15:45:23;2.87;;;1.70;;
12312;SDS011;6220;53.580;9.758;2022-09-09T15:47:49;2.73;;;1.80;;
12312;SDS011;6220;53.580;9.758;2022-09-09T15:50:14;5.70;;;2.13;;
12312;SDS011;6220;53.580;9.758;2022-09-09T15:52:40;2.47;;;1.70;;
12312;SDS011;6220;53.580;9.758;2022-09-09T15:55:06;4.20;;;1.90;;
12312;SDS011;6220;53.580;9.758;2022-09-09T15:57:33;3.20;;;1.60;;
12312;SDS011;6220;53.580;9.758;2022-09-09T15:59:59;3.60;;;2.10;;
12312;SDS011;6220;53.580;9.758;2022-09-09T16:02:24;3.67;;;2.03;;
12312;SDS011;6220;53.580;9.758;2022-09-09T16:04:50;5.23;;;2.23;;
12312;SDS011;6220;53.580;9.758;2022-09-09T16:07:15;3.10;;;1.90;;
12312;SDS011;6220;53.580;9.758;2022-09-09T16:09:40;4.83;;;2.00;;
12312;SDS011;6220;53.580;9.758;2022-09-09T16:12:08;3.90;;;2.10;;
12312;SDS011;6220;53.580;9.758;2022-09-09T16:14:34;3.47;;;2.17;;
12312;SDS011;6220;53.580;9.758;2022-09-09T16:17:01;5.27;;;1.97;;
12312;SDS011;6220;53.580;9.758;2022-09-09T16:19:26;3.37;;;2.00;;
12312;SDS011;6220;53.580;9.758;2022-09-09T16:21:52;2.57;;;1.60;;
12312;SDS011;6220;53.580;9.758;2022-09-09T16:24:18;2.67;;;1.70;;
12312;SDS011;6220;53.580;9.758;2022-09-09T16:26:45;3.93;;;1.73;;
12312;SDS011;6220;53.580;9.758;2022-09-09T16:29:20;2.90;;;1.73;;
12312;SDS011;6220;53.580;9.758;2022-09-09T16:31:47;4.23;;;1.87;;
12312;SDS011;6220;53.580;9.758;2022-09-09T16:34:13;2.50;;;1.70;;
12312;SDS011;6220;53.580;9.758;2022-09-09T16:36:40;3.00;;;1.60;;
12312;SDS011;6220;53.580;9.758;2022-09-09T16:39:07;5.23;;;2.00;;
12312;SDS011;6220;53.580;9.758;2022-09-09T16:41:34;3.67;;;1.70;;
12312;SDS011;6220;53.580;9.758;2022-09-09T16:44:02;3.43;;;1.50;;
12312;SDS011;6220;53.580;9.758;2022-09-09T16:46:29;3.10;;;1.60;;
12312;SDS011;6220;53.580;9.758;2022-09-09T16:48:58;2.83;;;1.80;;
12312;SDS011;6220;53.580;9.758;2022-09-09T16:51:25;2.57;;;1.73;;
12312;SDS011;6220;53.580;9.758;2022-09-09T16:53:51;2.27;;;1.43;;
12312;SDS011;6220;53.580;9.758;2022-09-09T16:56:19;2.10;;;1.43;;
12312;SDS011;6220;53.580;9.758;2022-09-09T16:58:50;3.00;;;1.60;;